createdAt,value
2023-01-30T00:01:07.453Z,95.63
2023-01-30T00:04:09.765Z,96.05
2023-01-30T00:07:11.283Z,95.52
2023-01-30T00:10:12.977Z,96.00
2023-01-30T00:13:15.317Z,96.81
2023-01-30T00:16:18.427Z,96.29
2023-01-30T00:19:19.956Z,96.17
2023-01-30T00:22:21.448Z,95.70
2023-01-30T00:25:23.046Z,96.19
2023-01-30T00:28:25.245Z,96.43
2023-01-30T00:31:26.822Z,96.40
2023-01-30T00:34:28.365Z,97.75
2023-01-30T00:37:29.889Z,97.45
2023-01-30T00:40:32.529Z,97.20
2023-01-30T00:47:38.535Z,97.64
2023-01-30T00:50:42.756Z,97.42
2023-01-30T00:53:46.671Z,97.52
2023-01-30T00:56:48.927Z,97.17
2023-01-30T00:59:50.544Z,97.44
2023-01-30T01:02:52.133Z,98.03
2023-01-30T01:05:53.713Z,99.15
2023-01-30T01:08:55.332Z,99.84
2023-01-30T01:11:56.963Z,100.00
2023-01-30T01:14:58.649Z,100.00
2023-01-30T01:18:00.243Z,99.72
2023-01-30T01:21:01.757Z,99.66
2023-01-30T01:24:03.474Z,99.68
2023-01-30T01:27:04.993Z,99.52
2023-01-30T01:30:08.364Z,99.92
2023-01-30T01:33:11.507Z,99.49
2023-01-30T01:36:20.018Z,99.68
2023-01-30T01:39:51.067Z,98.92
2023-01-30T01:42:52.803Z,98.85
2023-01-30T01:46:10.199Z,98.32
2023-01-30T06:38:21.336Z,97.60
2023-01-30T06:41:22.867Z,97.78
2023-01-30T06:44:24.396Z,97.31
2023-01-30T06:47:25.865Z,96.64
2023-01-30T06:50:28.862Z,96.79
2023-01-30T06:53:30.788Z,96.36
2023-01-30T06:56:32.275Z,96.25
2023-01-30T06:59:33.691Z,97.17
2023-01-30T07:02:35.528Z,97.21
2023-01-30T07:05:39.035Z,97.23
2023-01-30T07:08:41.014Z,97.50
2023-01-30T07:11:42.632Z,98.45
2023-01-30T07:14:44.119Z,98.13
2023-01-30T07:17:45.676Z,98.53
2023-01-30T07:20:48.619Z,98.79
2023-01-30T07:23:50.116Z,98.67
2023-01-30T07:26:51.635Z,99.14
2023-01-30T07:29:53.408Z,98.45
2023-01-30T07:32:57.858Z,98.12
2023-01-30T07:35:59.391Z,99.08
2023-01-30T07:39:01.602Z,98.47
2023-01-30T07:42:04.161Z,97.75
2023-01-30T07:45:06.438Z,97.51
2023-01-30T07:48:10.193Z,97.31
2023-01-30T07:51:11.982Z,97.63
2023-01-30T07:54:13.493Z,97.63
2023-01-30T07:57:14.984Z,96.64
2023-01-30T08:00:17.429Z,96.63
2023-01-30T08:03:19.042Z,95.30
2023-01-30T08:06:20.614Z,94.24
2023-01-30T08:09:22.105Z,93.06
2023-01-30T08:12:23.652Z,93.20
2023-01-30T08:15:25.123Z,91.31
2023-01-30T08:18:28.738Z,90.93
2023-01-30T08:21:30.269Z,89.69
2023-01-30T08:24:31.708Z,89.02
2023-01-30T08:27:33.212Z,88.88
2023-01-30T08:30:34.683Z,88.41
2023-01-30T08:33:36.276Z,87.59
2023-01-30T08:36:37.731Z,87.64
2023-01-30T08:39:39.208Z,87.18
2023-01-30T08:42:40.897Z,86.19
2023-01-30T08:45:42.341Z,84.65
2023-01-30T08:48:50.018Z,84.65
2023-01-30T08:51:51.839Z,84.24
2023-01-30T08:54:53.313Z,84.37
2023-01-30T08:57:56.803Z,82.67
2023-01-30T09:00:58.374Z,82.51
2023-01-30T09:03:59.852Z,81.93
2023-01-30T09:07:01.287Z,81.61
2023-01-30T09:10:03.042Z,81.11
2023-01-30T09:13:05.534Z,79.97
2023-01-30T09:16:07.199Z,79.50
2023-01-30T09:19:08.692Z,78.29
2023-01-30T09:22:10.419Z,77.66
2023-01-30T09:25:12.208Z,77.82
2023-01-30T09:28:13.936Z,77.44
2023-01-30T09:31:15.550Z,77.12
2023-01-30T09:34:17.080Z,76.60
2023-01-30T09:37:18.572Z,75.63
2023-01-30T09:40:32.561Z,75.26
2023-01-30T09:43:41.067Z,75.14
2023-01-30T09:46:54.678Z,75.06
2023-01-30T09:50:20.198Z,74.97
2023-01-30T09:53:55.887Z,75.27
2023-01-30T09:57:21.308Z,74.91
2023-01-30T10:00:37.594Z,75.09
2023-01-30T10:03:59.729Z,75.05
2023-01-30T10:07:10.098Z,74.46
2023-01-30T10:10:39.431Z,74.64
2023-01-30T10:14:10.029Z,74.64
2023-01-30T10:17:41.134Z,74.73
2023-01-30T10:21:06.947Z,73.99
2023-01-30T10:24:23.520Z,74.70
2023-01-30T10:27:26.118Z,74.72
2023-01-30T10:30:27.963Z,74.60
2023-01-30T10:33:36.892Z,74.49
2023-01-30T10:37:08.501Z,74.62
2023-01-30T10:40:33.640Z,74.05
2023-01-30T10:43:42.579Z,73.36
2023-01-30T10:47:11.451Z,72.54
2023-01-30T10:50:24.656Z,71.76
2023-01-30T10:53:42.295Z,70.98
2023-01-30T10:56:57.185Z,71.04
2023-01-30T11:00:35.975Z,69.79
2023-01-30T11:03:44.597Z,70.53
2023-01-30T11:06:46.499Z,70.08
2023-01-30T11:09:49.049Z,70.75
2023-01-30T11:13:14.478Z,71.16
2023-01-30T11:16:16.753Z,70.01
2023-01-30T11:19:22.735Z,70.00
2023-01-30T11:22:28.723Z,70.36
2023-01-30T11:25:30.280Z,69.45
2023-01-30T11:28:40.740Z,69.66
2023-01-30T11:31:42.826Z,69.09
2023-01-30T11:34:44.613Z,68.96
2023-01-30T11:37:46.088Z,68.58
2023-01-30T11:40:47.576Z,68.42
2023-01-30T11:43:49.199Z,68.03
2023-01-30T11:46:50.736Z,67.91
2023-01-30T11:50:16.857Z,68.10
2023-01-30T11:53:46.533Z,66.37
2023-01-30T11:56:53.673Z,66.45
2023-01-30T11:59:58.514Z,66.51
2023-01-30T12:03:05.615Z,66.52
2023-01-30T12:06:07.220Z,66.33
2023-01-30T12:09:38.659Z,65.93
2023-01-30T12:12:49.450Z,66.09
2023-01-30T12:15:57.854Z,66.63
2023-01-30T12:19:12.939Z,67.01
2023-01-30T12:22:36.158Z,67.11
2023-01-30T12:25:56.695Z,67.06
2023-01-30T12:29:03.987Z,67.51
2023-01-30T12:32:11.270Z,67.86
2023-01-30T12:35:26.794Z,68.22
2023-01-30T12:38:49.877Z,68.97
2023-01-30T12:42:26.090Z,68.89
2023-01-30T12:45:40.411Z,68.29
2023-01-30T12:49:11.497Z,68.22
2023-01-30T12:52:31.985Z,67.86
2023-01-30T12:55:57.221Z,67.96
2023-01-30T12:59:10.833Z,68.22
2023-01-30T13:02:30.779Z,68.88
2023-01-30T13:05:41.103Z,69.45
2023-01-30T13:09:02.738Z,69.59
2023-01-30T13:12:17.082Z,69.50
2023-01-30T13:15:47.887Z,69.57
2023-01-30T13:18:57.196Z,69.74
2023-01-30T13:22:03.383Z,71.06
2023-01-30T13:25:36.575Z,71.27
2023-01-30T13:28:47.450Z,71.47
2023-01-30T13:31:54.853Z,71.74
2023-01-30T13:34:59.376Z,72.66
2023-01-30T13:38:03.186Z,73.31
2023-01-30T13:41:05.841Z,73.54
2023-01-30T13:44:19.123Z,74.60
2023-01-30T13:47:32.707Z,74.15
2023-01-30T13:50:50.611Z,74.93
2023-01-30T13:54:07.326Z,75.20
2023-01-30T13:57:39.826Z,75.10
2023-01-30T14:00:53.615Z,75.95
2023-01-30T14:03:55.124Z,75.73
2023-01-30T14:07:20.237Z,76.19
2023-01-30T14:10:23.698Z,76.25
2023-01-30T14:13:27.284Z,76.31
2023-01-30T14:16:43.928Z,76.12
2023-01-30T14:19:48.466Z,75.88
2023-01-30T14:22:58.327Z,76.06
2023-01-30T14:26:00.657Z,76.43
2023-01-30T14:29:02.111Z,76.71
2023-01-30T14:32:23.967Z,77.29
2023-01-30T14:35:30.513Z,77.14
2023-01-30T14:38:33.117Z,78.29
2023-01-30T14:41:34.581Z,77.93
2023-01-30T14:44:55.504Z,78.57
2023-01-30T14:48:25.051Z,78.85
2023-01-30T14:51:56.600Z,78.85
2023-01-30T14:54:58.055Z,78.94
2023-01-30T14:58:02.714Z,79.10
2023-01-30T15:01:04.841Z,79.17
2023-01-30T15:04:06.353Z,79.41
2023-01-30T15:07:12.255Z,79.12
2023-01-30T15:10:25.407Z,79.38
2023-01-30T15:13:55.696Z,80.07
2023-01-30T15:17:11.963Z,79.50
2023-01-30T15:20:32.400Z,79.94
2023-01-30T15:24:09.987Z,80.06
2023-01-30T15:27:27.399Z,80.61
2023-01-30T15:30:37.940Z,80.85
2023-01-30T15:33:47.419Z,81.74
2023-01-30T15:36:49.101Z,81.31
2023-01-30T15:39:50.598Z,81.55
2023-01-30T15:43:01.058Z,82.27
2023-01-30T15:46:13.127Z,83.11
2023-01-30T15:49:41.831Z,83.69
2023-01-30T15:52:48.214Z,83.11
2023-01-30T15:55:50.868Z,83.52
2023-01-30T15:58:53.960Z,84.79
2023-01-30T16:02:28.893Z,85.22
2023-01-30T16:05:31.115Z,85.20
2023-01-30T16:08:34.961Z,84.94
2023-01-30T16:11:40.707Z,85.10
2023-01-30T16:14:42.132Z,85.29
2023-01-30T16:17:47.803Z,85.64
2023-01-30T16:21:01.654Z,86.60
2023-01-30T16:24:05.313Z,87.04
2023-01-30T16:27:19.859Z,88.08
2023-01-30T16:30:25.067Z,87.79
2023-01-30T16:33:27.310Z,88.05
2023-01-30T16:36:32.935Z,88.13
2023-01-30T16:39:37.361Z,88.27
2023-01-30T16:42:39.146Z,87.94
2023-01-30T16:45:52.879Z,87.83
2023-01-30T16:49:04.776Z,88.46
2023-01-30T16:52:15.337Z,88.75
2023-01-30T16:55:24.290Z,88.84
2023-01-30T16:58:32.675Z,88.55
2023-01-30T17:01:40.532Z,88.51
2023-01-30T17:04:43.233Z,88.37
2023-01-30T17:07:45.574Z,88.71
2023-01-30T17:10:52.005Z,89.73
2023-01-30T17:14:10.638Z,90.40
2023-01-30T17:17:14.365Z,90.66
2023-01-30T17:20:16.537Z,91.83
2023-01-30T17:23:19.664Z,92.97
2023-01-30T17:26:21.641Z,94.03
2023-01-30T17:29:41.446Z,93.37
2023-01-30T17:32:43.959Z,93.29
2023-01-30T17:35:45.970Z,93.54
2023-01-30T17:38:47.806Z,94.00
2023-01-30T17:41:49.696Z,94.22
2023-01-30T17:44:51.703Z,94.72
2023-01-30T17:47:53.164Z,94.86
2023-01-30T17:50:54.863Z,95.00
2023-01-30T17:53:56.479Z,94.90
2023-01-30T17:57:04.192Z,94.99
2023-01-30T18:00:06.254Z,95.65
2023-01-30T18:03:10.844Z,96.39
2023-01-30T18:06:16.048Z,95.81
2023-01-30T18:09:24.413Z,95.42
2023-01-30T18:12:26.554Z,96.18
2023-01-30T18:15:28.133Z,96.10
2023-01-30T18:18:29.611Z,95.90
2023-01-30T18:21:33.160Z,96.29
2023-01-30T18:24:34.695Z,96.36
2023-01-30T18:27:36.208Z,96.52
2023-01-30T18:30:37.910Z,96.73
2023-01-30T18:33:41.062Z,96.42
2023-01-30T18:36:42.860Z,96.48
2023-01-30T18:39:44.347Z,96.78
2023-01-30T18:42:46.407Z,96.45
2023-01-30T18:45:48.485Z,96.08
2023-01-30T18:48:49.983Z,96.03
2023-01-30T18:51:51.515Z,96.49
2023-01-30T18:54:53.056Z,96.62
2023-01-30T18:57:54.627Z,97.27
2023-01-30T19:00:57.843Z,97.13
2023-01-30T19:04:01.153Z,96.79
2023-01-30T19:07:02.646Z,96.17
2023-01-30T19:10:04.509Z,95.59
2023-01-30T19:13:24.974Z,96.48
2023-01-30T19:16:28.167Z,96.39
2023-01-30T19:19:29.702Z,96.08
2023-01-30T19:22:31.221Z,95.93
2023-01-30T19:25:32.772Z,96.72
2023-01-30T19:28:35.415Z,96.96
2023-01-30T19:31:37.109Z,96.67
2023-01-30T19:34:38.737Z,96.84
2023-01-30T19:37:40.288Z,97.04
2023-01-30T19:40:45.543Z,97.86
2023-01-30T19:43:47.464Z,98.12
2023-01-30T19:46:49.354Z,98.14
2023-01-30T19:49:51.925Z,98.09
2023-01-30T19:52:53.427Z,97.93
2023-01-30T19:55:55.108Z,98.25
2023-01-30T19:58:58.710Z,98.88
2023-01-30T20:02:00.289Z,99.01
2023-01-30T20:05:02.623Z,99.22
2023-01-30T20:08:04.499Z,99.55
2023-01-30T20:11:08.523Z,99.04
2023-01-30T20:14:10.912Z,99.03
2023-01-30T20:17:14.224Z,99.05
2023-01-30T20:20:17.154Z,98.88
2023-01-30T20:23:19.572Z,98.88
2023-01-30T20:26:27.047Z,98.04
2023-01-30T20:29:28.641Z,98.19
2023-01-30T20:32:30.868Z,97.82
2023-01-30T20:35:35.658Z,98.40
2023-01-30T20:38:39.582Z,98.23
2023-01-30T20:41:41.193Z,98.42
2023-01-30T20:44:42.660Z,98.79
2023-01-30T20:47:44.140Z,99.29
2023-01-30T20:50:45.598Z,98.54
2023-01-30T20:53:52.884Z,99.29
2023-01-30T20:56:54.632Z,99.03
2023-01-30T20:59:56.137Z,99.23
2023-01-30T21:02:58.921Z,99.13
2023-01-30T21:06:01.525Z,98.93
2023-01-30T21:09:04.774Z,98.65
2023-01-30T21:12:07.232Z,98.68
2023-01-30T21:15:09.375Z,98.17
2023-01-30T21:18:10.900Z,98.34
2023-01-30T21:21:39.296Z,99.41
2023-01-30T21:24:40.789Z,100.00
2023-01-30T21:27:46.344Z,99.98
2023-01-30T21:30:48.015Z,99.81
2023-01-30T21:33:49.624Z,99.20
2023-01-30T21:37:09.616Z,99.05
2023-01-30T21:40:30.619Z,99.36
2023-01-30T21:43:32.043Z,98.60
2023-01-30T21:46:38.125Z,98.01
2023-01-30T21:49:40.656Z,98.48
2023-01-30T21:52:42.162Z,97.92
2023-01-30T21:55:48.955Z,97.48
2023-01-30T21:58:50.426Z,97.91
2023-01-30T22:01:51.912Z,98.72
2023-01-30T22:04:53.408Z,98.92
2023-01-30T22:07:54.843Z,99.16
2023-01-30T22:11:09.403Z,99.95
2023-01-30T22:14:14.634Z,100.00
2023-01-30T22:17:16.184Z,100.00
2023-01-30T22:20:17.687Z,100.00
2023-01-30T22:23:19.119Z,100.00
2023-01-30T22:26:23.914Z,100.00
2023-01-30T22:29:25.444Z,100.00
2023-01-30T22:32:26.906Z,100.00
2023-01-30T22:35:28.356Z,100.00
2023-01-30T22:38:29.897Z,100.00
2023-01-30T22:41:37.148Z,100.00
2023-01-30T22:44:39.778Z,100.00
2023-01-30T22:47:41.261Z,100.00
2023-01-30T22:50:42.688Z,100.00
2023-01-30T22:53:53.383Z,100.00
2023-01-30T22:56:54.911Z,100.00
2023-01-30T22:59:56.345Z,100.00
2023-01-30T23:02:57.856Z,100.00
2023-01-30T23:06:01.207Z,100.00
2023-01-30T23:09:04.772Z,100.00
2023-01-30T23:12:24.880Z,100.00
2023-01-30T23:15:26.365Z,100.00
2023-01-30T23:18:46.765Z,100.00
2023-01-30T23:21:48.294Z,100.00
2023-01-30T23:24:50.968Z,100.00
2023-01-30T23:27:52.526Z,100.00
2023-01-30T23:30:54.030Z,100.00
2023-01-30T23:33:59.579Z,100.00
2023-01-30T23:37:01.105Z,100.00
2023-01-30T23:40:02.578Z,100.00
2023-01-30T23:43:04.383Z,100.00
2023-01-30T23:46:33.361Z,100.00
2023-01-30T23:49:35.347Z,100.00
2023-01-30T23:52:36.865Z,100.00
2023-01-30T23:55:38.668Z,100.00
2023-01-30T23:58:40.910Z,100.00
